Time;durP1;ratioP1;P1;durP2;ratioP2;P2;SDS_P1;SDS_P2;PMS_P1;PMS_P2;Temp;Humidity;BMP_temperature;BMP_pressure;BME280_temperature;BME280_humidity;BME280_pressure;Samples;Min_cycle;Max_cycle;Signal;HPM_P1;HPM_P2
2022/10/23 00:00:54;;;;;;;2.70;1.80;;;11.80;99.90;;;;;;7356819;19;20365;-76
2022/10/23 00:03:20;;;;;;;2.70;1.80;;;11.70;99.90;;;;;;7361630;19;20447;-76
2022/10/23 00:05:45;;;;;;;1.77;1.67;;;11.70;99.90;;;;;;7366754;19;20364;-76
2022/10/23 00:08:11;;;;;;;1.40;1.30;;;11.60;99.90;;;;;;7362966;19;20375;-74
2022/10/23 00:10:40;;;;;;;1.37;1.30;;;11.60;99.90;;;;;;7357742;19;20360;-75
2022/10/23 00:13:05;;;;;;;1.80;1.50;;;11.70;99.90;;;;;;7357935;19;20359;-75
2022/10/23 00:15:33;;;;;;;3.75;1.70;;;11.70;99.90;;;;;;7363932;19;20353;-74
2022/10/23 00:17:58;;;;;;;2.20;1.40;;;11.60;99.90;;;;;;7360024;19;20374;-74
2022/10/23 00:20:24;;;;;;;1.67;1.57;;;11.60;99.90;;;;;;7351793;19;20361;-74
2022/10/23 00:22:49;;;;;;;1.58;1.48;;;11.50;99.90;;;;;;7359982;19;20367;-75
2022/10/23 00:25:15;;;;;;;1.95;1.75;;;11.50;99.90;;;;;;7364012;19;20483;-74
2022/10/23 00:27:41;;;;;;;2.77;2.03;;;11.50;99.90;;;;;;7365184;19;20359;-74
2022/10/23 00:30:07;;;;;;;1.80;1.70;;;11.50;99.90;;;;;;7360422;19;20368;-74
2022/10/23 00:32:32;;;;;;;1.88;1.77;;;11.40;99.90;;;;;;7365406;19;21215;-74
2022/10/23 00:34:58;;;;;;;2.27;2.07;;;11.40;99.90;;;;;;7357824;19;20348;-74
2022/10/23 00:37:24;;;;;;;1.92;1.83;;;11.30;99.90;;;;;;7355753;19;20332;-77
2022/10/23 00:39:49;;;;;;;2.30;1.90;;;11.30;99.90;;;;;;7357353;19;20368;-76
2022/10/23 00:42:16;;;;;;;2.50;2.20;;;11.30;99.90;;;;;;7364154;19;20363;-77
2022/10/23 00:44:42;;;;;;;2.95;1.80;;;11.20;99.90;;;;;;7364318;19;20992;-77
2022/10/23 00:47:07;;;;;;;1.90;1.80;;;11.20;99.90;;;;;;7364628;19;20389;-76
2022/10/23 00:49:33;;;;;;;2.40;2.20;;;11.20;99.90;;;;;;7358528;19;20379;-76
2022/10/23 00:52:01;;;;;;;2.50;1.90;;;11.10;99.90;;;;;;7359831;19;20675;-74
2022/10/23 00:54:28;;;;;;;2.25;2.05;;;11.10;99.90;;;;;;7363210;19;20368;-75
2022/10/23 00:56:57;;;;;;;2.30;2.10;;;11.10;99.90;;;;;;7363953;19;20352;-74
2022/10/23 00:59:23;;;;;;;2.10;1.92;;;11.00;99.90;;;;;;7362083;19;20351;-74
2022/10/23 01:01:49;;;;;;;2.22;2.03;;;11.00;99.90;;;;;;7357120;19;20380;-74
2022/10/23 01:04:14;;;;;;;2.00;1.80;;;11.00;99.90;;;;;;7366833;19;20390;-75
2022/10/23 01:06:49;;;;;;;1.80;1.70;;;11.00;99.90;;;;;;7362670;19;20393;-77
2022/10/23 01:09:19;;;;;;;1.92;1.80;;;11.00;99.90;;;;;;7363396;19;20452;-76
2022/10/23 01:11:58;;;;;;;1.70;1.60;;;11.00;99.90;;;;;;7357265;19;20368;-76
2022/10/23 01:14:35;;;;;;;2.60;1.80;;;11.00;99.90;;;;;;7364705;19;21509;-76
2022/10/23 01:17:17;;;;;;;1.80;1.70;;;11.00;99.90;;;;;;7363139;19;20380;-75
2022/10/23 01:20:00;;;;;;;1.45;1.33;;;11.00;99.90;;;;;;7357679;19;20392;-77
2022/10/23 01:22:51;;;;;;;1.50;1.40;;;11.00;99.90;;;;;;7361788;19;20876;-76
2022/10/23 01:25:22;;;;;;;1.60;1.50;;;11.10;99.90;;;;;;7364696;19;20803;-76
2022/10/23 01:27:51;;;;;;;1.73;1.63;;;11.10;99.90;;;;;;7369849;19;20339;-76
2022/10/23 01:30:16;;;;;;;1.80;1.70;;;11.10;99.90;;;;;;7365021;19;20368;-76
2022/10/23 01:32:51;;;;;;;1.80;1.70;;;11.10;99.90;;;;;;7366931;19;21127;-76
2022/10/23 01:35:27;;;;;;;1.67;1.58;;;11.10;99.90;;;;;;7370843;19;20360;-74
2022/10/23 01:38:08;;;;;;;1.50;1.40;;;11.10;99.90;;;;;;7368584;19;20382;-75
2022/10/23 01:40:40;;;;;;;1.73;1.63;;;11.10;99.90;;;;;;7363067;19;20426;-74
2022/10/23 01:43:10;;;;;;;1.95;1.83;;;11.10;99.90;;;;;;7365813;19;20340;-74
2022/10/23 01:45:49;;;;;;;2.08;1.80;;;11.00;99.90;;;;;;7370228;19;20352;-75
2022/10/23 01:48:20;;;;;;;2.13;1.92;;;11.00;99.90;;;;;;7367306;19;21116;-75
2022/10/23 01:50:46;;;;;;;2.47;1.50;;;10.90;99.90;;;;;;7364734;19;20435;-74
2022/10/23 01:53:12;;;;;;;3.25;1.73;;;10.90;99.90;;;;;;7366566;19;20377;-74
2022/10/23 01:55:37;;;;;;;1.95;1.70;;;10.90;99.90;;;;;;7370866;19;21095;-74
2022/10/23 01:58:06;;;;;;;1.67;1.58;;;10.90;99.90;;;;;;7367199;19;20352;-74
2022/10/23 02:00:36;;;;;;;2.33;1.70;;;10.90;99.90;;;;;;7362895;19;20692;-74
2022/10/23 02:03:03;;;;;;;1.70;1.60;;;10.90;99.90;;;;;;7366216;19;20388;-76
2022/10/23 02:05:32;;;;;;;1.70;1.60;;;10.90;99.90;;;;;;7369038;19;21263;-76
2022/10/23 02:07:58;;;;;;;1.80;1.70;;;10.90;99.90;;;;;;7367193;19;20465;-76
2022/10/23 02:10:32;;;;;;;2.10;2.00;;;10.80;99.90;;;;;;7366578;19;20379;-76
2022/10/23 02:13:26;;;;;;;1.90;1.80;;;10.70;99.90;;;;;;7366233;19;20359;-76
2022/10/23 02:16:13;;;;;;;2.90;2.00;;;10.70;99.90;;;;;;7368449;19;20367;-76
2022/10/23 02:18:50;;;;;;;1.73;1.63;;;10.70;99.90;;;;;;7367611;19;20357;-74
2022/10/23 02:21:44;;;;;;;2.75;1.90;;;10.60;99.90;;;;;;7359736;19;20385;-75
2022/10/23 02:24:11;;;;;;;2.00;1.90;;;10.60;99.90;;;;;;7368705;19;20356;-74
2022/10/23 02:26:54;;;;;;;2.15;2.00;;;10.60;99.90;;;;;;7363325;19;20361;-75
2022/10/23 02:29:44;;;;;;;1.90;1.80;;;10.60;99.90;;;;;;7369112;19;20348;-74
2022/10/23 02:32:11;;;;;;;2.10;2.00;;;10.50;99.90;;;;;;7366685;19;20340;-76
2022/10/23 02:34:39;;;;;;;1.88;1.73;;;10.60;99.90;;;;;;7369334;19;20482;-76
2022/10/23 02:37:04;;;;;;;3.70;1.90;;;10.60;99.90;;;;;;7367301;19;20336;-76
2022/10/23 02:39:30;;;;;;;2.27;2.07;;;10.60;99.90;;;;;;7365132;19;20360;-77
2022/10/23 02:41:58;;;;;;;1.77;1.67;;;10.60;99.90;;;;;;7365213;19;20324;-76
2022/10/23 02:44:45;;;;;;;1.83;1.73;;;10.70;99.90;;;;;;7368850;19;20325;-76
2022/10/23 02:47:23;;;;;;;2.40;2.20;;;10.70;99.90;;;;;;7364817;19;20368;-74
2022/10/23 02:50:09;;;;;;;2.20;2.10;;;10.70;99.90;;;;;;7363170;19;20387;-75
2022/10/23 02:53:00;;;;;;;2.20;1.95;;;10.70;99.90;;;;;;7364520;19;20366;-74
2022/10/23 02:55:35;;;;;;;2.15;1.95;;;10.70;99.90;;;;;;7368152;19;20365;-74
2022/10/23 02:58:09;;;;;;;1.90;1.80;;;10.70;99.90;;;;;;7367101;19;20348;-75
2022/10/23 03:00:42;;;;;;;2.05;1.88;;;10.80;99.90;;;;;;7358382;19;20688;-75
2022/10/23 03:03:12;;;;;;;2.03;1.83;;;10.80;99.90;;;;;;7364875;19;20733;-74
2022/10/23 03:05:39;;;;;;;1.70;1.60;;;10.80;99.90;;;;;;7367671;19;20903;-75
2022/10/23 03:08:07;;;;;;;1.90;1.80;;;10.80;99.90;;;;;;7370479;19;20353;-74
2022/10/23 03:10:33;;;;;;;2.08;1.95;;;10.80;99.90;;;;;;7362705;19;20380;-74
2022/10/23 03:12:58;;;;;;;1.90;1.80;;;10.80;99.90;;;;;;7365837;19;20424;-75
2022/10/23 03:15:24;;;;;;;5.00;2.00;;;10.80;99.90;;;;;;7367245;19;21080;-76
2022/10/23 03:17:50;;;;;;;1.90;1.70;;;10.80;99.90;;;;;;7366623;19;20361;-76
2022/10/23 03:20:16;;;;;;;2.97;1.87;;;10.80;99.90;;;;;;7360795;19;20992;-76
2022/10/23 03:22:43;;;;;;;1.73;1.63;;;10.80;99.90;;;;;;7365361;19;20361;-76
2022/10/23 03:25:08;;;;;;;1.60;1.50;;;10.70;99.90;;;;;;7368526;19;20340;-76
2022/10/23 03:27:35;;;;;;;1.60;1.50;;;10.70;99.90;;;;;;7365983;19;20369;-76
2022/10/23 03:30:04;;;;;;;1.77;1.67;;;10.80;99.90;;;;;;7359222;19;20389;-75
2022/10/23 03:32:30;;;;;;;1.92;1.60;;;10.80;99.90;;;;;;7364515;19;20375;-75
2022/10/23 03:34:55;;;;;;;1.97;1.87;;;10.80;99.90;;;;;;7368522;19;20777;-75
2022/10/23 03:37:21;;;;;;;2.30;2.10;;;10.80;99.90;;;;;;7366252;19;20355;-75
2022/10/23 03:39:47;;;;;;;1.97;1.80;;;10.80;99.90;;;;;;7348000;19;20356;-75
2022/10/23 03:42:12;;;;;;;2.17;1.90;;;10.80;99.90;;;;;;7363783;19;21170;-75
2022/10/23 03:44:38;;;;;;;5.00;1.83;;;10.80;99.90;;;;;;7366059;19;20997;-76
2022/10/23 03:47:03;;;;;;;1.80;1.70;;;10.80;99.90;;;;;;7363294;19;20353;-76
2022/10/23 03:49:29;;;;;;;4.10;1.80;;;10.80;99.90;;;;;;7360895;19;20349;-77
2022/10/23 03:52:01;;;;;;;1.55;1.45;;;10.80;99.90;;;;;;7362066;19;20400;-76
2022/10/23 03:54:28;;;;;;;1.92;1.70;;;10.80;99.90;;;;;;7367272;19;20398;-76
2022/10/23 03:56:54;;;;;;;2.80;1.80;;;10.80;99.90;;;;;;7367092;19;20401;-76
2022/10/23 03:59:19;;;;;;;1.98;1.85;;;10.80;99.90;;;;;;7364333;19;21107;-75
2022/10/23 04:01:45;;;;;;;3.40;1.77;;;10.70;99.90;;;;;;7355509;19;21351;-75
2022/10/23 04:04:11;;;;;;;1.70;1.60;;;10.70;99.90;;;;;;7367973;19;20369;-75
2022/10/23 04:06:40;;;;;;;2.07;1.90;;;10.70;99.90;;;;;;7369359;19;20360;-75
2022/10/23 04:09:06;;;;;;;1.80;1.70;;;10.70;99.90;;;;;;7365075;19;20375;-75
2022/10/23 04:11:32;;;;;;;2.55;1.80;;;10.70;99.90;;;;;;7358965;19;21301;-74
2022/10/23 04:13:57;;;;;;;2.17;1.90;;;10.60;99.90;;;;;;7365181;19;20488;-76
2022/10/23 04:16:23;;;;;;;1.57;1.47;;;10.60;99.90;;;;;;7365597;19;20799;-76
2022/10/23 04:18:49;;;;;;;2.05;1.60;;;10.60;99.90;;;;;;7365537;19;20356;-76
2022/10/23 04:21:14;;;;;;;2.10;1.70;;;10.60;99.90;;;;;;7359279;19;20394;-76
2022/10/23 04:23:40;;;;;;;1.90;1.65;;;10.60;99.90;;;;;;7363457;19;20356;-76
2022/10/23 04:26:14;;;;;;;1.80;1.70;;;10.60;99.90;;;;;;7364414;19;20347;-75
2022/10/23 04:28:40;;;;;;;2.40;2.20;;;10.60;99.90;;;;;;7364033;19;20337;-75
2022/10/23 04:31:05;;;;;;;2.27;1.97;;;10.60;99.90;;;;;;7358356;19;20468;-74
2022/10/23 04:33:32;;;;;;;2.00;1.90;;;10.50;99.90;;;;;;7363226;19;20358;-74
2022/10/23 04:35:57;;;;;;;2.13;1.92;;;10.50;99.90;;;;;;7365859;19;20360;-74
2022/10/23 04:38:23;;;;;;;4.13;2.07;;;10.40;99.90;;;;;;7363260;19;20328;-74
2022/10/23 04:40:49;;;;;;;1.90;1.80;;;10.40;99.90;;;;;;7356417;19;20356;-74
2022/10/23 04:43:19;;;;;;;1.70;1.60;;;10.30;99.90;;;;;;7362541;19;20360;-74
2022/10/23 04:45:44;;;;;;;1.95;1.85;;;10.30;99.90;;;;;;7364243;19;20368;-75
2022/10/23 04:48:10;;;;;;;1.80;1.70;;;10.30;99.90;;;;;;7363555;19;20368;-74
2022/10/23 04:50:58;;;;;;;1.63;1.53;;;10.30;99.90;;;;;;7359472;19;20689;-74
2022/10/23 04:53:42;;;;;;;1.35;1.35;;;10.30;99.90;;;;;;7364566;19;20459;-75
2022/10/23 04:56:18;;;;;;;1.90;1.80;;;10.30;99.90;;;;;;7371668;19;20345;-76
2022/10/23 04:58:57;;;;;;;2.03;1.80;;;10.30;99.90;;;;;;7364270;19;21568;-76
2022/10/23 05:01:23;;;;;;;1.90;1.80;;;10.30;99.90;;;;;;7360941;19;20348;-76
2022/10/23 05:03:48;;;;;;;3.33;1.70;;;10.20;99.90;;;;;;7371379;19;20340;-76
2022/10/23 05:06:14;;;;;;;2.53;1.60;;;10.10;99.90;;;;;;7372652;19;20352;-76
2022/10/23 05:08:48;;;;;;;1.52;1.42;;;10.00;99.90;;;;;;7370428;19;20353;-76
2022/10/23 05:11:34;;;;;;;2.95;1.60;;;10.10;99.90;;;;;;7363682;19;20901;-77
2022/10/23 05:14:04;;;;;;;1.23;1.23;;;10.10;99.90;;;;;;7371189;19;20360;-76
2022/10/23 05:16:45;;;;;;;1.40;1.30;;;10.00;99.90;;;;;;7370202;19;20359;-77
2022/10/23 05:19:12;;;;;;;2.15;1.50;;;10.00;99.90;;;;;;7370104;19;20992;-77
2022/10/23 05:21:38;;;;;;;1.40;1.30;;;9.90;99.90;;;;;;7361293;19;20375;-74
2022/10/23 05:24:05;;;;;;;1.17;1.08;;;9.90;99.90;;;;;;7368676;19;20375;-76
2022/10/23 05:26:31;;;;;;;1.00;1.00;;;9.80;99.90;;;;;;7367090;19;20364;-76
2022/10/23 05:28:59;;;;;;;1.20;1.10;;;9.80;99.90;;;;;;7309805;19;20313;-76
2022/10/23 05:31:26;;;;;;;1.00;1.00;;;9.70;99.90;;;;;;7360525;19;20340;-76
2022/10/23 05:33:55;;;;;;;1.10;1.10;;;9.70;99.90;;;;;;7363654;19;20351;-76
2022/10/23 05:36:21;;;;;;;1.27;1.13;;;9.70;99.90;;;;;;7365047;19;20337;-76
2022/10/23 05:38:54;;;;;;;1.20;1.10;;;9.70;99.90;;;;;;7362219;19;21232;-76
2022/10/23 05:41:20;;;;;;;1.23;1.20;;;9.70;99.90;;;;;;7354172;19;20373;-76
2022/10/23 05:43:46;;;;;;;1.30;1.20;;;9.60;99.90;;;;;;7364890;19;20323;-76
2022/10/23 05:46:50;;;;;;;1.20;1.20;;;9.60;99.90;;;;;;7256779;19;2004536;-76
2022/10/23 05:49:35;;;;;;;1.45;1.35;;;9.60;99.90;;;;;;7360086;19;21364;-77
2022/10/23 05:52:19;;;;;;;1.70;1.60;;;9.60;99.90;;;;;;7258942;19;2004367;-77
2022/10/23 05:55:08;;;;;;;1.58;1.48;;;9.60;99.90;;;;;;7364522;19;20324;-76
2022/10/23 05:58:12;;;;;;;1.80;1.70;;;9.50;99.90;;;;;;7156977;19;2004906;-76
2022/10/23 06:01:03;;;;;;;1.75;1.58;;;9.40;99.90;;;;;;7357297;19;20332;-76
2022/10/23 06:03:46;;;;;;;1.90;1.80;;;9.40;99.90;;;;;;7261132;19;2004317;-75
2022/10/23 06:06:12;;;;;;;2.10;1.38;;;9.30;99.90;;;;;;7364443;19;20316;-76
2022/10/23 06:08:44;;;;;;;1.90;1.40;;;9.30;99.90;;;;;;7342082;19;20412;-76
2022/10/23 06:11:11;;;;;;;1.60;1.50;;;9.30;99.90;;;;;;7358594;19;20316;-75
2022/10/23 06:13:38;;;;;;;1.35;1.25;;;9.30;99.90;;;;;;7340297;19;20347;-76
2022/10/23 06:16:13;;;;;;;1.50;1.40;;;9.30;99.90;;;;;;7339946;19;20304;-76
2022/10/23 06:18:40;;;;;;;1.40;1.30;;;9.40;99.90;;;;;;7255791;19;2004551;-76
2022/10/23 06:21:10;;;;;;;2.38;1.63;;;9.40;99.90;;;;;;7359620;19;20320;-75
2022/10/23 06:23:36;;;;;;;1.80;1.60;;;9.30;99.90;;;;;;7362460;19;20314;-76
2022/10/23 06:26:22;;;;;;;2.38;1.70;;;9.30;99.90;;;;;;7260218;19;2004466;-75
2022/10/23 06:29:14;;;;;;;1.70;1.60;;;9.20;99.90;;;;;;7261490;19;2004825;-76
2022/10/23 06:31:41;;;;;;;1.77;1.67;;;9.30;99.90;;;;;;7354629;19;20855;-76
2022/10/23 06:34:09;;;;;;;1.83;1.60;;;9.30;99.90;;;;;;7366858;19;20321;-76
2022/10/23 06:36:36;;;;;;;1.60;1.50;;;9.30;99.90;;;;;;7360990;19;20424;-76
2022/10/23 06:39:09;;;;;;;1.90;1.70;;;9.50;99.90;;;;;;7259814;19;2004254;-76
2022/10/23 06:41:55;;;;;;;1.57;1.47;;;9.60;99.90;;;;;;7356369;19;20320;-76
2022/10/23 06:44:53;;;;;;;1.70;1.52;;;9.60;99.90;;;;;;7260227;19;2004463;-75
2022/10/23 06:47:42;;;;;;;1.80;1.70;;;9.80;99.90;;;;;;7232871;19;2004378;-76
2022/10/23 06:50:26;;;;;;;1.70;1.60;;;9.90;99.90;;;;;;7357864;19;20358;-76
2022/10/23 06:52:52;;;;;;;1.45;1.30;;;10.00;99.90;;;;;;7360248;19;20333;-76
2022/10/23 06:55:20;;;;;;;1.57;1.47;;;10.10;99.90;;;;;;7345726;19;20352;-75
2022/10/23 06:57:46;;;;;;;1.45;1.35;;;10.20;99.90;;;;;;7357743;19;20324;-75
2022/10/23 07:00:12;;;;;;;1.53;1.43;;;10.30;99.90;;;;;;7362935;19;20443;-76
2022/10/23 07:02:47;;;;;;;1.60;1.33;;;10.30;99.90;;;;;;7360861;19;20846;-76
2022/10/23 07:05:13;;;;;;;1.47;1.37;;;10.40;99.90;;;;;;7362727;19;20321;-74
2022/10/23 07:07:39;;;;;;;1.38;1.27;;;10.50;99.90;;;;;;7336783;19;21155;-74
2022/10/23 07:10:05;;;;;;;1.40;1.30;;;10.50;99.90;;;;;;7355712;19;20456;-73
2022/10/23 07:12:39;;;;;;;1.30;1.20;;;10.50;99.90;;;;;;7259280;19;2004175;-74
2022/10/23 07:15:30;;;;;;;1.40;1.30;;;10.50;99.90;;;;;;7362315;19;20316;-75
2022/10/23 07:17:57;;;;;;;1.25;1.15;;;10.60;99.90;;;;;;7359651;19;20341;-73
2022/10/23 07:20:24;;;;;;;1.40;1.30;;;10.60;99.90;;;;;;7362924;19;20352;-73
2022/10/23 07:22:53;;;;;;;1.30;1.30;;;10.70;99.90;;;;;;7362667;19;20320;-73
2022/10/23 07:25:25;;;;;;;2.30;1.50;;;10.70;99.90;;;;;;7360898;19;20433;-74
2022/10/23 07:27:51;;;;;;;1.70;1.55;;;10.80;99.90;;;;;;7361216;19;20320;-74
2022/10/23 07:30:17;;;;;;;1.70;1.60;;;10.80;99.90;;;;;;7359757;19;20321;-73
2022/10/23 07:32:50;;;;;;;2.45;2.20;;;10.90;99.90;;;;;;7361117;19;20315;-74
2022/10/23 07:35:34;;;;;;;2.30;2.10;;;11.00;99.90;;;;;;7362834;19;20327;-74
2022/10/23 07:38:05;;;;;;;2.75;2.42;;;11.10;99.90;;;;;;7359558;19;20325;-73
2022/10/23 07:40:35;;;;;;;2.83;2.40;;;11.20;99.90;;;;;;7357251;19;20980;-74
2022/10/23 07:43:02;;;;;;;2.17;1.98;;;11.20;99.90;;;;;;7360210;19;21048;-74
2022/10/23 07:45:27;;;;;;;2.37;1.83;;;11.30;99.90;;;;;;7362106;19;20337;-74
2022/10/23 07:47:53;;;;;;;2.40;2.10;;;11.40;99.90;;;;;;7358584;19;20349;-74
2022/10/23 07:50:22;;;;;;;2.47;2.28;;;11.50;99.90;;;;;;7357158;19;20345;-75
2022/10/23 07:52:47;;;;;;;3.17;2.33;;;11.60;99.90;;;;;;7360065;19;20327;-74
2022/10/23 07:55:15;;;;;;;2.25;2.05;;;11.60;99.90;;;;;;7361868;19;20363;-73
2022/10/23 07:57:46;;;;;;;2.63;2.42;;;11.70;99.90;;;;;;7362967;19;20996;-73
2022/10/23 08:00:24;;;;;;;2.70;2.00;;;11.80;99.90;;;;;;7358339;19;20354;-74
2022/10/23 08:02:57;;;;;;;4.22;2.20;;;11.90;99.90;;;;;;7354554;19;20371;-74
2022/10/23 08:05:23;;;;;;;2.10;1.90;;;12.00;99.90;;;;;;7357623;19;20321;-74
2022/10/23 08:07:57;;;;;;;2.40;2.17;;;12.10;99.90;;;;;;7361831;19;20312;-74
2022/10/23 08:10:23;;;;;;;2.10;2.00;;;12.10;99.90;;;;;;7355711;19;20345;-74
2022/10/23 08:12:48;;;;;;;2.43;2.17;;;12.20;99.90;;;;;;7362071;19;20340;-73
2022/10/23 08:15:16;;;;;;;2.45;2.20;;;12.30;99.90;;;;;;7362534;19;20313;-73
2022/10/23 08:17:50;;;;;;;7.15;2.90;;;12.40;99.90;;;;;;7359734;19;21207;-74
2022/10/23 08:20:22;;;;;;;3.67;2.25;;;12.50;99.90;;;;;;7357729;19;21354;-73
2022/10/23 08:22:47;;;;;;;3.58;2.40;;;12.60;99.90;;;;;;7355497;19;20367;-73
2022/10/23 08:25:18;;;;;;;2.83;2.60;;;12.70;99.90;;;;;;7357931;19;20776;-73
2022/10/23 08:27:44;;;;;;;2.87;2.43;;;12.80;99.90;;;;;;7359811;19;20312;-73
2022/10/23 08:30:10;;;;;;;3.60;2.60;;;12.90;99.90;;;;;;7355494;19;20344;-74
2022/10/23 08:32:36;;;;;;;2.67;2.47;;;13.00;99.90;;;;;;7358668;19;20330;-74
2022/10/23 08:35:02;;;;;;;3.95;2.50;;;13.10;99.90;;;;;;7359225;19;20335;-74
2022/10/23 08:37:30;;;;;;;4.60;2.70;;;13.20;99.90;;;;;;7359625;19;20312;-74
2022/10/23 08:39:56;;;;;;;3.40;2.33;;;13.30;99.90;;;;;;7348776;19;20379;-73
2022/10/23 08:42:28;;;;;;;2.38;2.15;;;13.40;99.90;;;;;;7354873;19;20325;-74
2022/10/23 08:45:11;;;;;;;2.20;2.00;;;13.60;99.90;;;;;;7356203;19;20347;-75
2022/10/23 08:47:46;;;;;;;2.97;2.20;;;13.70;99.90;;;;;;7355067;19;21266;-73
2022/10/23 08:50:43;;;;;;;3.33;2.10;;;13.80;99.90;;;;;;7146965;19;2004527;-73
2022/10/23 08:53:19;;;;;;;3.30;2.10;;;14.00;99.90;;;;;;7354155;19;20344;-73
2022/10/23 08:56:26;;;;;;;2.55;1.90;;;14.00;99.90;;;;;;7255881;19;2019973;-73
2022/10/23 08:59:18;;;;;;;2.50;1.83;;;14.10;99.90;;;;;;7246960;19;2005025;-73
2022/10/23 09:01:49;;;;;;;2.97;2.47;;;14.20;99.90;;;;;;7243740;19;2004377;-73
2022/10/23 09:04:15;;;;;;;3.75;2.10;;;14.20;99.90;;;;;;7350089;19;20359;-73
2022/10/23 09:07:12;;;;;;;1.90;1.80;;;14.20;99.90;;;;;;7352476;19;20352;-73
2022/10/23 09:09:58;;;;;;;2.80;1.90;;;14.20;99.90;;;;;;7348952;19;20324;-73
2022/10/23 09:12:24;;;;;;;3.72;1.92;;;14.20;99.90;;;;;;7252342;19;2004252;-73
2022/10/23 09:15:27;;;;;;;2.65;2.35;;;14.30;99.90;;;;;;7356326;19;20630;-73
2022/10/23 09:18:00;;;;;;;2.53;2.03;;;14.40;99.90;;;;;;7248703;19;2004109;-73
2022/10/23 09:20:35;;;;;;;2.00;1.80;;;14.50;99.90;;;;;;7350186;19;20357;-73
2022/10/23 09:23:18;;;;;;;2.30;2.10;;;14.50;99.90;;;;;;7341027;19;20392;-73
2022/10/23 09:25:45;;;;;;;3.28;2.33;;;14.60;99.90;;;;;;7248573;19;2015338;-73
2022/10/23 09:28:19;;;;;;;3.92;2.40;;;14.60;99.90;;;;;;7348485;19;21330;-75
2022/10/23 09:30:45;;;;;;;2.57;2.20;;;14.60;99.90;;;;;;7347413;19;20351;-74
2022/10/23 09:33:18;;;;;;;3.30;2.45;;;14.70;99.90;;;;;;7349601;19;20356;-74
2022/10/23 09:36:00;;;;;;;3.95;2.38;;;14.80;99.90;;;;;;6046037;19;10001292;-74
2022/10/23 09:38:27;;;;;;;3.13;1.98;;;14.80;99.90;;;;;;7354126;19;20328;-74
2022/10/23 09:40:52;;;;;;;3.13;1.73;;;15.00;99.90;;;;;;7349561;19;20372;-75
2022/10/23 09:43:22;;;;;;;4.65;2.15;;;15.10;99.90;;;;;;7347787;19;20367;-74
2022/10/23 09:46:00;;;;;;;2.45;2.13;;;15.20;99.90;;;;;;7352155;19;20344;-74
2022/10/23 09:48:26;;;;;;;2.40;2.17;;;15.30;99.90;;;;;;7357383;19;21196;-74
2022/10/23 09:50:59;;;;;;;3.30;2.10;;;15.40;99.90;;;;;;7357313;19;20345;-74
2022/10/23 09:53:39;;;;;;;2.83;2.10;;;15.50;99.90;;;;;;7361739;19;21001;-73
2022/10/23 09:56:24;;;;;;;3.20;1.97;;;15.60;99.90;;;;;;7361433;19;20325;-73
2022/10/23 09:59:00;;;;;;;2.65;2.00;;;15.70;99.90;;;;;;7257574;19;2004433;-74
2022/10/23 10:01:29;;;;;;;3.92;2.10;;;15.80;99.90;;;;;;7344677;19;20419;-74
2022/10/23 10:04:04;;;;;;;2.60;1.85;;;15.90;99.90;;;;;;7353136;19;20308;-73
2022/10/23 10:06:31;;;;;;;2.60;1.90;;;16.00;99.90;;;;;;7357854;19;21113;-73
2022/10/23 10:08:58;;;;;;;2.22;2.03;;;16.10;99.90;;;;;;7356875;19;20336;-73
2022/10/23 10:11:42;;;;;;;2.90;1.80;;;16.20;99.90;;;;;;7354982;19;20379;-73
2022/10/23 10:14:37;;;;;;;2.30;1.83;;;16.20;99.90;;;;;;7355194;19;20340;-73
2022/10/23 10:17:11;;;;;;;2.70;1.80;;;16.30;99.90;;;;;;7255400;19;2004172;-73
2022/10/23 10:19:53;;;;;;;1.70;1.58;;;16.40;99.90;;;;;;7353649;19;20400;-74
2022/10/23 10:22:19;;;;;;;2.22;1.67;;;16.50;99.90;;;;;;7251771;19;2004524;-73
2022/10/23 10:25:08;;;;;;;1.90;1.80;;;16.60;99.90;;;;;;7358704;19;21052;-74
2022/10/23 10:27:53;;;;;;;2.22;1.80;;;16.70;99.90;;;;;;7356135;19;20378;-74
2022/10/23 10:30:20;;;;;;;1.80;1.70;;;16.70;99.90;;;;;;7253730;19;2004426;-74
2022/10/23 10:32:50;;;;;;;4.50;1.60;;;16.90;99.90;;;;;;7355778;19;20335;-74
2022/10/23 10:35:30;;;;;;;3.53;2.13;;;16.90;99.90;;;;;;7355417;19;20332;-74
2022/10/23 10:38:12;;;;;;;2.88;1.88;;;17.00;99.90;;;;;;7362439;19;20440;-74
2022/10/23 10:40:46;;;;;;;4.43;1.80;;;17.20;99.90;;;;;;7352206;19;20368;-75
2022/10/23 10:43:33;;;;;;;1.63;1.42;;;17.30;99.90;;;;;;7252575;19;2004377;-75
2022/10/23 10:46:04;;;;;;;3.20;1.52;;;17.40;99.90;;;;;;7361744;19;20340;-75
2022/10/23 10:48:50;;;;;;;2.72;1.67;;;17.60;99.90;;;;;;7357311;19;20336;-75
2022/10/23 10:51:51;;;;;;;1.92;1.63;;;17.70;99.90;;;;;;7255938;19;2004386;-75
2022/10/23 10:54:29;;;;;;;2.40;1.48;;;17.70;99.90;;;;;;7258922;19;2004426;-75
2022/10/23 10:56:55;;;;;;;2.87;1.50;;;17.90;99.90;;;;;;7356998;19;20332;-75
2022/10/23 10:59:23;;;;;;;2.22;1.63;;;17.90;99.90;;;;;;7355219;19;20371;-75
2022/10/23 11:02:12;;;;;;;1.67;1.58;;;18.00;99.90;;;;;;7356405;19;20347;-74
2022/10/23 11:04:44;;;;;;;2.13;1.70;;;18.20;99.90;;;;;;7357608;19;21215;-75
2022/10/23 11:07:12;;;;;;;4.85;1.77;;;18.20;99.90;;;;;;7254737;19;2004464;-75
2022/10/23 11:09:38;;;;;;;2.97;1.58;;;18.40;99.90;;;;;;7354441;19;20336;-76
2022/10/23 11:12:04;;;;;;;2.07;1.70;;;18.60;99.90;;;;;;7354539;19;20352;-76
2022/10/23 11:14:32;;;;;;;2.30;1.70;;;18.70;99.90;;;;;;7360058;19;21235;-75
2022/10/23 11:17:03;;;;;;;2.38;1.70;;;18.70;99.90;;;;;;7355239;19;20384;-76
2022/10/23 11:19:40;;;;;;;2.05;1.60;;;18.80;99.90;;;;;;7353309;19;20504;-76
2022/10/23 11:22:36;;;;;;;3.28;1.83;;;18.90;99.90;;;;;;7353863;19;20349;-75
2022/10/23 11:25:18;;;;;;;2.03;1.73;;;18.90;99.90;;;;;;7255472;19;2004697;-75
2022/10/23 11:28:05;;;;;;;3.33;1.70;;;19.00;99.90;;;;;;7253081;19;2004889;-75
2022/10/23 11:30:43;;;;;;;2.03;1.47;;;19.10;99.90;;;;;;7351959;19;20640;-75
2022/10/23 11:33:39;;;;;;;3.00;1.80;;;19.20;99.90;;;;;;7356953;19;21198;-76
2022/10/23 11:36:16;;;;;;;2.30;1.55;;;19.20;99.90;;;;;;7256051;19;2004321;-76
2022/10/23 11:38:48;;;;;;;1.58;1.48;;;19.20;99.90;;;;;;7252866;19;2004193;-76
2022/10/23 11:41:28;;;;;;;2.13;1.60;;;19.20;99.90;;;;;;7352103;19;20344;-76
2022/10/23 11:43:56;;;;;;;2.08;1.52;;;18.90;99.90;;;;;;7355548;19;20835;-76
2022/10/23 11:46:21;;;;;;;3.50;2.00;;;18.90;99.90;;;;;;7357800;19;21021;-76
2022/10/23 11:48:47;;;;;;;3.20;1.47;;;18.80;99.90;;;;;;7357830;19;20368;-76
2022/10/23 11:51:31;;;;;;;2.77;1.43;;;19.00;99.90;;;;;;7353515;19;20436;-76
2022/10/23 11:54:09;;;;;;;2.23;1.57;;;19.10;99.90;;;;;;7356798;19;20548;-76
2022/10/23 11:56:35;;;;;;;3.33;1.70;;;19.30;99.90;;;;;;7356084;19;20348;-76
2022/10/23 11:59:21;;;;;;;3.97;1.77;;;19.50;99.90;;;;;;7353102;19;20340;-75
2022/10/23 12:01:47;;;;;;;2.45;1.70;;;19.70;99.90;;;;;;7252771;19;2004172;-74
2022/10/23 12:04:13;;;;;;;2.83;1.80;;;19.80;99.90;;;;;;7353399;19;20338;-74
2022/10/23 12:06:46;;;;;;;2.53;1.55;;;19.80;99.90;;;;;;7355058;19;21135;-75
2022/10/23 12:09:39;;;;;;;2.65;1.90;;;19.70;99.90;;;;;;7249173;19;2004445;-74
2022/10/23 12:12:07;;;;;;;2.63;1.90;;;19.70;99.90;;;;;;7353069;19;21080;-74
2022/10/23 12:14:37;;;;;;;2.15;1.95;;;19.60;99.90;;;;;;7357048;19;20328;-75
2022/10/23 12:17:23;;;;;;;2.22;2.03;;;19.60;99.90;;;;;;7353111;19;20948;-74
2022/10/23 12:19:53;;;;;;;1.98;1.77;;;19.50;99.90;;;;;;7251716;19;2004418;-75
2022/10/23 12:22:21;;;;;;;2.65;1.95;;;19.50;99.90;;;;;;7354479;19;20348;-75
2022/10/23 12:24:57;;;;;;;3.53;1.80;;;19.50;99.90;;;;;;7356037;19;20452;-75
2022/10/23 12:27:29;;;;;;;3.10;1.90;;;19.50;99.90;;;;;;7353252;19;20365;-74
2022/10/23 12:30:10;;;;;;;2.10;1.90;;;19.40;99.90;;;;;;7349781;19;20387;-75
2022/10/23 12:32:51;;;;;;;2.25;2.05;;;19.40;99.90;;;;;;7353439;19;20348;-75
2022/10/23 12:35:17;;;;;;;5.47;2.10;;;19.10;99.90;;;;;;7253018;19;2004283;-77
2022/10/23 12:38:04;;;;;;;2.50;1.92;;;19.00;99.90;;;;;;7357451;19;20355;-76
2022/10/23 12:40:29;;;;;;;3.20;2.03;;;19.00;99.90;;;;;;7351361;19;20317;-75
2022/10/23 12:42:56;;;;;;;5.00;3.20;;;18.90;99.90;;;;;;7354253;19;20356;-76
2022/10/23 12:45:27;;;;;;;2.97;2.30;;;18.90;99.90;;;;;;7359107;19;20409;-76
2022/10/23 12:47:52;;;;;;;3.08;1.90;;;18.80;99.90;;;;;;7357869;19;20345;-76
2022/10/23 12:50:24;;;;;;;3.35;2.03;;;18.80;99.90;;;;;;7349292;19;20341;-74
2022/10/23 12:52:51;;;;;;;1.90;1.80;;;18.80;99.90;;;;;;7354945;19;20324;-74
2022/10/23 12:55:17;;;;;;;4.57;2.03;;;18.80;99.90;;;;;;7355712;19;20367;-74
2022/10/23 12:57:43;;;;;;;2.00;1.90;;;18.80;99.90;;;;;;7349399;19;20348;-74
2022/10/23 13:00:09;;;;;;;4.07;2.30;;;18.80;99.90;;;;;;7347107;19;20407;-74
2022/10/23 13:02:34;;;;;;;2.38;2.17;;;18.80;99.90;;;;;;7350536;19;20345;-74
2022/10/23 13:05:04;;;;;;;1.80;1.70;;;18.80;99.90;;;;;;7352963;19;20789;-74
2022/10/23 13:07:32;;;;;;;3.08;1.83;;;18.80;99.90;;;;;;7352798;19;20341;-74
2022/10/23 13:10:01;;;;;;;4.63;2.13;;;18.80;99.90;;;;;;7350041;19;20906;-74
2022/10/23 13:12:32;;;;;;;4.90;2.20;;;18.80;99.90;;;;;;7352476;19;20320;-74